Time;durP1;ratioP1;P1;durP2;ratioP2;P2;SDS_P1;SDS_P2;PMS_P1;PMS_P2;Temp;Humidity;BMP_temperature;BMP_pressure;BME280_temperature;BME280_humidity;BME280_pressure;Samples;Min_cycle;Max_cycle;Signal;HPM_P1;HPM_P2
2023/06/15 00:00:29;;;;;;;0.13;0.13;;;;;;;20.32;52.14;101998.72;5061733;28;20031;-80
2023/06/15 00:02:56;;;;;;;0.00;0.00;;;;;;;20.29;51.17;101998.88;5064445;28;20174;-79
2023/06/15 00:05:22;;;;;;;0.22;0.22;;;;;;;20.28;51.29;101993.56;5053039;28;20025;-79
2023/06/15 00:07:48;;;;;;;0.00;0.00;;;;;;;20.23;51.21;101999.13;5054165;28;20097;-79
2023/06/15 00:10:14;;;;;;;0.30;0.22;;;;;;;20.18;50.82;101991.25;5060539;28;20124;-80
2023/06/15 00:12:41;;;;;;;0.10;0.10;;;;;;;20.16;50.40;101997.63;5062763;28;20047;-81
2023/06/15 00:15:07;;;;;;;0.15;0.15;;;;;;;20.16;50.61;102003.00;5065818;28;20081;-78
2023/06/15 00:17:37;;;;;;;0.10;0.10;;;;;;;20.16;50.99;102003.00;5065590;28;20017;-78
2023/06/15 00:20:08;;;;;;;0.00;0.00;;;;;;;20.15;50.71;102007.53;5065013;28;20025;-80
2023/06/15 00:22:34;;;;;;;0.10;0.10;;;;;;;20.14;50.49;102002.22;5060926;28;20029;-80
2023/06/15 00:25:01;;;;;;;0.00;0.00;;;;;;;20.13;50.71;102006.72;5063664;28;20025;-80
2023/06/15 00:27:27;;;;;;;0.13;0.13;;;;;;;20.09;51.21;102007.78;5060002;28;20036;-80
2023/06/15 00:29:53;;;;;;;0.08;0.08;;;;;;;20.07;51.40;102006.97;5063178;28;20450;-80
2023/06/15 00:32:19;;;;;;;0.00;0.00;;;;;;;20.06;51.64;102007.03;5062237;28;20021;-80
2023/06/15 00:34:45;;;;;;;0.10;0.10;;;;;;;20.04;51.00;102009.81;5062506;28;20067;-80
2023/06/15 00:37:11;;;;;;;0.00;0.00;;;;;;;20.02;51.59;102017.91;5063324;28;20025;-80
2023/06/15 00:39:37;;;;;;;0.00;0.00;;;;;;;20.01;51.30;102018.88;5063134;28;20409;-80
2023/06/15 00:42:04;;;;;;;0.10;0.10;;;;;;;19.97;51.67;102014.53;5064043;28;20609;-79
2023/06/15 00:44:30;;;;;;;0.10;0.10;;;;;;;19.92;51.30;102005.78;5060903;28;20498;-80
2023/06/15 00:46:57;;;;;;;0.00;0.00;;;;;;;19.91;51.11;101998.66;5060659;28;20024;-79
2023/06/15 00:49:24;;;;;;;0.10;0.10;;;;;;;19.88;51.09;102006.84;5057252;28;20029;-80
2023/06/15 00:51:51;;;;;;;0.10;0.10;;;;;;;19.85;51.28;102006.97;5058283;28;20025;-80
2023/06/15 00:54:22;;;;;;;0.10;0.10;;;;;;;19.84;51.28;102000.72;5061434;28;20044;-80
2023/06/15 00:56:50;;;;;;;0.00;0.00;;;;;;;19.80;52.56;102011.63;5063196;28;20031;-80
2023/06/15 00:59:17;;;;;;;0.10;0.10;;;;;;;19.77;51.25;102011.78;5060303;28;20097;-79
2023/06/15 01:01:48;;;;;;;0.28;0.28;;;;;;;19.75;51.43;102013.63;5061692;28;20082;-80
2023/06/15 01:04:16;;;;;;;0.10;0.10;;;;;;;19.72;51.99;102007.44;5061470;28;20029;-79
2023/06/15 01:06:52;;;;;;;0.00;0.00;;;;;;;19.72;52.71;102017.31;5060167;28;20041;-79
2023/06/15 01:09:21;;;;;;;0.10;0.10;;;;;;;19.70;51.81;102011.13;5058246;28;20040;-80
2023/06/15 01:11:52;;;;;;;0.00;0.00;;;;;;;19.66;52.75;102018.44;5042836;28;20028;-80
2023/06/15 01:14:20;;;;;;;0.10;0.10;;;;;;;19.64;51.63;102012.25;5056087;28;20088;-80
2023/06/15 01:16:52;;;;;;;0.10;0.10;;;;;;;19.61;52.30;102017.72;5057618;28;20108;-80
2023/06/15 01:22:41;;;;;;;0.30;0.30;;;;;;;19.63;52.49;102015.88;5077230;28;20401;-79
2023/06/15 01:25:26;;;;;;;0.10;0.10;;;;;;;19.56;51.17;102023.31;5053448;28;20041;-79
2023/06/15 01:28:15;;;;;;;0.10;0.10;;;;;;;19.55;53.20;102023.34;5053955;28;20029;-80
2023/06/15 01:30:53;;;;;;;0.22;0.22;;;;;;;19.49;52.42;102024.47;5051325;28;20041;-79
2023/06/15 01:33:21;;;;;;;0.20;0.20;;;;;;;19.44;52.41;102017.53;5052500;28;20051;-79
2023/06/15 01:35:47;;;;;;;0.10;0.10;;;;;;;19.41;52.98;102018.50;5055510;28;20021;-79
2023/06/15 01:38:17;;;;;;;0.10;0.10;;;;;;;19.42;52.98;102016.72;5056438;28;20502;-78
2023/06/15 01:40:46;;;;;;;0.10;0.10;;;;;;;19.39;53.06;102020.41;5054760;28;20021;-78
2023/06/15 01:43:15;;;;;;;0.52;0.47;;;;;;;19.35;52.88;102016.97;5053384;28;20029;-79
2023/06/15 01:45:43;;;;;;;0.00;0.00;;;;;;;19.33;52.19;102013.44;5048826;28;20052;-79
2023/06/15 01:48:11;;;;;;;0.00;0.00;;;;;;;19.32;52.44;102019.75;5051898;28;20044;-79
2023/06/15 01:50:38;;;;;;;0.10;0.10;;;;;;;19.28;53.31;102010.06;5057741;28;20022;-79
2023/06/15 01:53:05;;;;;;;0.28;0.28;;;;;;;19.27;53.56;102012.81;5052439;28;20060;-78
2023/06/15 01:55:31;;;;;;;0.43;0.38;;;;;;;19.24;53.53;102011.13;5051994;28;20029;-78
2023/06/15 01:57:57;;;;;;;0.75;0.75;;;;;;;19.22;54.10;102011.16;5053070;28;20133;-79
2023/06/15 02:00:24;;;;;;;1.25;1.25;;;;;;;19.21;53.89;102013.91;5052326;28;20276;-80
2023/06/15 02:02:50;;;;;;;0.00;0.00;;;;;;;19.19;53.22;102015.75;5056148;28;20025;-79
2023/06/15 02:05:17;;;;;;;0.08;0.08;;;;;;;19.15;53.94;102009.66;5052458;28;20136;-79
2023/06/15 02:07:43;;;;;;;0.08;0.08;;;;;;;19.15;54.20;102011.44;5056372;28;20127;-78
2023/06/15 02:10:10;;;;;;;0.00;0.00;;;;;;;19.12;54.16;102017.81;5055207;28;20037;-79
2023/06/15 02:12:36;;;;;;;0.00;0.00;;;;;;;19.10;53.97;102016.13;5054549;28;20063;-79
2023/06/15 02:15:03;;;;;;;0.00;0.00;;;;;;;19.08;53.57;102019.75;5058165;28;20035;-79
2023/06/15 02:17:33;;;;;;;1.20;1.17;;;;;;;19.07;54.41;102015.28;5052792;28;20022;-77
2023/06/15 02:19:59;;;;;;;0.00;0.00;;;;;;;19.07;54.49;102017.97;5051699;28;20059;-78
2023/06/15 02:22:26;;;;;;;0.00;0.00;;;;;;;19.03;54.52;102021.72;5071174;28;20036;-80
2023/06/15 02:24:52;;;;;;;0.10;0.10;;;;;;;19.03;54.52;102028.91;5064912;28;20077;-79
2023/06/15 02:27:18;;;;;;;0.08;0.08;;;;;;;19.01;54.87;102022.72;5064571;28;20021;-79
2023/06/15 02:29:44;;;;;;;0.17;0.17;;;;;;;18.98;54.60;102031.75;5056618;28;20080;-79
2023/06/15 02:32:35;;;;;;;0.20;0.20;;;;;;;19.03;55.46;102042.34;5050245;28;20449;-79
2023/06/15 02:35:04;;;;;;;0.17;0.17;;;;;;;18.97;54.84;102037.19;5045798;28;20670;-79
2023/06/15 02:37:31;;;;;;;0.10;0.10;;;;;;;18.93;54.28;102044.50;5051684;28;20562;-78
2023/06/15 02:39:57;;;;;;;0.00;0.00;;;;;;;18.91;55.31;102046.34;5037699;28;20026;-79
2023/06/15 02:42:23;;;;;;;0.03;0.03;;;;;;;18.90;54.41;102037.41;5037488;28;20499;-79
2023/06/15 02:44:49;;;;;;;0.00;0.00;;;;;;;18.88;55.14;102038.38;5053413;28;20039;-80
2023/06/15 02:47:16;;;;;;;0.00;0.00;;;;;;;18.86;54.94;102038.41;5038470;28;20490;-80
2023/06/15 02:49:42;;;;;;;0.00;0.00;;;;;;;18.85;55.59;102039.34;5044761;28;20060;-79
2023/06/15 02:52:08;;;;;;;0.00;0.00;;;;;;;18.86;54.89;102038.41;5054879;28;20040;-79
2023/06/15 02:54:36;;;;;;;0.38;0.38;;;;;;;18.80;54.33;102037.75;5042925;28;20055;-79
2023/06/15 02:57:06;;;;;;;0.00;0.00;;;;;;;18.83;54.63;102034.94;5043459;28;20120;-78
2023/06/15 02:59:33;;;;;;;0.00;0.00;;;;;;;18.83;54.79;102034.94;5046094;28;20017;-80
2023/06/15 03:02:00;;;;;;;0.10;0.10;;;;;;;18.83;54.39;102040.31;5043460;28;20025;-80
2023/06/15 03:04:27;;;;;;;0.10;0.10;;;;;;;18.82;55.02;102035.91;5038456;28;20029;-81
2023/06/15 03:06:56;;;;;;;0.00;0.00;;;;;;;18.82;53.76;102038.59;5056244;28;20031;-80
2023/06/15 03:09:23;;;;;;;0.45;0.45;;;;;;;18.82;55.08;102039.47;5037031;28;20390;-78
2023/06/15 03:11:50;;;;;;;0.20;0.20;;;;;;;18.80;54.84;102035.94;5044189;28;20051;-78
2023/06/15 03:14:18;;;;;;;0.15;0.15;;;;;;;18.81;55.29;102042.22;5040092;28;20030;-79
2023/06/15 03:16:48;;;;;;;0.00;0.00;;;;;;;18.79;54.67;102036.00;5030129;28;20060;-80
2023/06/15 03:19:15;;;;;;;0.00;0.00;;;;;;;18.78;54.83;102037.81;5038545;28;20117;-80
2023/06/15 03:21:42;;;;;;;0.00;0.00;;;;;;;18.78;55.26;102047.66;5043612;28;20025;-80
2023/06/15 03:24:08;;;;;;;0.00;0.00;;;;;;;18.77;55.47;102046.81;5043838;28;20098;-80
2023/06/15 03:26:37;;;;;;;0.00;0.00;;;;;;;18.78;55.90;102044.97;5043448;28;20029;-79
2023/06/15 03:29:03;;;;;;;0.00;0.00;;;;;;;18.75;56.33;102045.97;5041432;28;20032;-79
2023/06/15 03:31:33;;;;;;;0.00;0.00;;;;;;;18.74;54.88;102049.56;5056652;28;20012;-79
2023/06/15 03:34:00;;;;;;;0.10;0.10;;;;;;;18.73;54.91;102045.16;5042568;28;20029;-79
2023/06/15 03:36:31;;;;;;;0.00;0.00;;;;;;;18.74;55.21;102046.91;5044096;28;20021;-79
2023/06/15 03:38:58;;;;;;;0.05;0.05;;;;;;;18.72;56.29;102044.28;5046129;28;20461;-78
2023/06/15 03:41:26;;;;;;;0.10;0.10;;;;;;;18.71;55.90;102045.19;5038987;28;20047;-77
2023/06/15 03:43:52;;;;;;;0.30;0.30;;;;;;;18.70;56.02;102046.13;5038257;28;20056;-78
2023/06/15 03:46:19;;;;;;;0.10;0.10;;;;;;;18.72;55.98;102054.16;5041609;28;20109;-77
2023/06/15 03:48:45;;;;;;;0.32;0.32;;;;;;;18.73;55.23;102048.72;5054619;28;20029;-79
2023/06/15 03:51:12;;;;;;;0.10;0.10;;;;;;;18.73;56.36;102056.78;5047257;28;20025;-79
2023/06/15 03:53:41;;;;;;;0.00;0.00;;;;;;;18.74;56.60;102057.63;5043719;28;20029;-80
2023/06/15 03:56:07;;;;;;;0.08;0.08;;;;;;;18.74;56.67;102044.22;5045123;28;20123;-81
2023/06/15 03:58:33;;;;;;;0.00;0.00;;;;;;;18.76;56.38;102051.28;5042405;28;20056;-81
2023/06/15 04:01:00;;;;;;;0.00;0.00;;;;;;;18.77;55.92;102054.84;5044140;28;20048;-80
2023/06/15 04:03:26;;;;;;;0.00;0.00;;;;;;;18.79;56.60;102054.78;5037883;28;20030;-80
2023/06/15 04:05:53;;;;;;;0.28;0.28;;;;;;;18.80;56.50;102053.88;5043425;28;20429;-81
2023/06/15 04:08:19;;;;;;;0.00;0.00;;;;;;;18.82;56.08;102055.56;5049278;28;20032;-79
2023/06/15 04:10:45;;;;;;;0.10;0.10;;;;;;;18.84;56.53;102052.81;5044488;28;20024;-80
2023/06/15 04:13:11;;;;;;;0.00;0.00;;;;;;;18.86;55.98;102057.19;5051030;28;20437;-80
2023/06/15 04:15:37;;;;;;;0.13;0.13;;;;;;;18.88;55.20;102051.81;5045754;28;20048;-80
2023/06/15 04:18:04;;;;;;;0.08;0.08;;;;;;;18.89;56.13;102056.22;5055415;28;20057;-80
2023/06/15 04:20:31;;;;;;;0.10;0.10;;;;;;;18.91;55.91;102055.25;5044709;28;20104;-80
2023/06/15 04:22:57;;;;;;;0.00;0.00;;;;;;;18.95;55.54;102060.53;5046592;28;20028;-79
2023/06/15 04:25:27;;;;;;;1.20;0.38;;;;;;;18.96;55.67;102052.41;5031695;28;20033;-80
2023/06/15 04:27:53;;;;;;;0.20;0.20;;;;;;;19.00;55.69;102061.25;5045235;28;20029;-80
2023/06/15 04:30:24;;;;;;;0.08;0.08;;;;;;;19.01;56.09;102061.19;5059618;28;20027;-79
2023/06/15 04:32:59;;;;;;;0.10;0.10;;;;;;;19.04;55.89;102060.19;5040231;28;20020;-80
2023/06/15 04:35:31;;;;;;;0.00;0.00;;;;;;;19.05;55.76;102065.53;5032187;28;20033;-80
2023/06/15 04:37:58;;;;;;;0.87;0.87;;;;;;;19.08;56.15;102070.78;5050438;28;20041;-80
2023/06/15 04:40:24;;;;;;;0.00;0.00;;;;;;;19.11;56.02;102063.56;5042912;28;20026;-81
2023/06/15 04:42:53;;;;;;;0.08;0.08;;;;;;;19.13;55.90;102069.72;5046569;28;20559;-80
2023/06/15 04:45:19;;;;;;;0.10;0.10;;;;;;;19.16;55.56;102072.31;5045934;28;20490;-80
2023/06/15 04:47:47;;;;;;;0.00;0.00;;;;;;;19.19;56.10;102073.06;5038905;28;20032;-80
2023/06/15 04:50:13;;;;;;;0.10;0.10;;;;;;;19.22;55.85;102078.31;5049852;28;20053;-80
2023/06/15 04:52:41;;;;;;;0.10;0.10;;;;;;;19.25;55.13;102082.72;5042487;28;20032;-80
2023/06/15 04:55:08;;;;;;;0.10;0.10;;;;;;;19.26;57.06;102080.91;5041002;28;20398;-79
2023/06/15 04:57:34;;;;;;;0.10;0.10;;;;;;;19.28;55.88;102079.94;5043988;28;20029;-79
2023/06/15 05:00:00;;;;;;;0.10;0.10;;;;;;;19.32;55.99;102086.94;5041579;28;20080;-80
2023/06/15 05:02:26;;;;;;;0.20;0.20;;;;;;;19.37;55.69;102090.31;5040580;28;20111;-80
2023/06/15 05:04:52;;;;;;;0.10;0.10;;;;;;;19.41;55.36;102080.34;5046111;28;20044;-79
2023/06/15 05:07:18;;;;;;;0.10;0.10;;;;;;;19.46;55.83;102088.22;5049570;28;20096;-79
2023/06/15 05:09:45;;;;;;;0.00;0.00;;;;;;;19.49;56.46;102083.63;5045662;28;20025;-80
2023/06/15 05:12:11;;;;;;;0.00;0.00;;;;;;;19.53;56.09;102089.75;5054570;28;20025;-80
2023/06/15 05:14:38;;;;;;;0.00;0.00;;;;;;;19.55;55.73;102082.50;5051852;28;20082;-79
2023/06/15 05:17:04;;;;;;;0.10;0.10;;;;;;;19.59;56.12;102086.84;5050105;28;20498;-79
2023/06/15 05:19:31;;;;;;;0.00;0.00;;;;;;;19.62;56.64;102086.72;5038355;28;20037;-81
2023/06/15 05:22:01;;;;;;;0.10;0.10;;;;;;;19.67;55.56;102090.09;5050825;28;20036;-81
2023/06/15 05:24:27;;;;;;;0.10;0.10;;;;;;;19.71;56.05;102083.69;5046568;28;20512;-80
2023/06/15 05:26:53;;;;;;;0.05;0.05;;;;;;;19.75;56.97;102083.53;5042325;28;20028;-79
2023/06/15 05:29:20;;;;;;;0.13;0.13;;;;;;;19.77;55.24;102077.16;5046972;28;20032;-80
2023/06/15 05:31:46;;;;;;;0.00;0.00;;;;;;;19.81;55.48;102083.31;5038945;28;20112;-80
2023/06/15 05:34:12;;;;;;;0.10;0.10;;;;;;;19.84;56.36;102084.09;5035635;28;20541;-80
2023/06/15 05:36:38;;;;;;;0.10;0.10;;;;;;;19.87;56.21;102083.97;5034576;28;20063;-78
2023/06/15 05:39:06;;;;;;;0.00;0.00;;;;;;;19.90;55.50;102088.38;5039647;28;20120;-79
2023/06/15 05:41:32;;;;;;;0.50;0.50;;;;;;;19.91;55.77;102090.09;5048925;28;20027;-79
2023/06/15 05:44:00;;;;;;;0.15;0.15;;;;;;;19.94;56.40;102086.41;5054127;28;20029;-80
2023/06/15 05:46:26;;;;;;;0.75;0.30;;;;;;;19.96;56.16;102087.22;5038312;28;20494;-80
2023/06/15 05:48:52;;;;;;;0.10;0.10;;;;;;;20.02;55.73;102087.84;5034357;28;20390;-78
2023/06/15 05:51:18;;;;;;;0.10;0.10;;;;;;;20.06;55.77;102088.63;5028101;28;20797;-81
2023/06/15 05:53:44;;;;;;;0.10;0.10;;;;;;;20.12;55.17;102087.50;5032930;28;20140;-78
2023/06/15 05:56:10;;;;;;;0.00;0.00;;;;;;;20.13;55.54;102092.81;5032318;28;20533;-78
2023/06/15 05:58:37;;;;;;;0.10;0.10;;;;;;;20.16;56.21;102097.19;5035174;28;20150;-79
2023/06/15 06:01:03;;;;;;;0.00;0.00;;;;;;;20.23;55.92;102100.53;5033265;28;20030;-79
2023/06/15 06:03:29;;;;;;;0.10;0.10;;;;;;;20.28;55.56;102093.13;5030667;28;20398;-76
2023/06/15 06:05:55;;;;;;;0.00;0.00;;;;;;;20.33;56.89;102088.44;5021264;28;20056;-80
2023/06/15 06:08:23;;;;;;;0.03;0.03;;;;;;;20.39;56.37;102096.25;5035887;28;20253;-81
2023/06/15 06:10:49;;;;;;;0.10;0.10;;;;;;;20.43;56.58;102097.88;5030871;28;20072;-79
2023/06/15 06:13:15;;;;;;;0.20;0.20;;;;;;;20.48;56.30;102095.00;5034269;28;20037;-79
2023/06/15 06:15:41;;;;;;;0.10;0.10;;;;;;;20.52;55.77;102094.81;5042895;28;20040;-80
2023/06/15 06:18:07;;;;;;;0.20;0.20;;;;;;;20.57;54.99;102097.28;5043675;22;20101;-78
2023/06/15 06:20:33;;;;;;;0.10;0.10;;;;;;;20.62;55.94;102100.69;5021100;28;20037;-78
2023/06/15 06:22:59;;;;;;;0.00;0.00;;;;;;;20.68;55.48;102094.16;5021054;28;20038;-78
2023/06/15 06:25:26;;;;;;;0.30;0.30;;;;;;;20.73;55.30;102099.38;5021901;28;20025;-79
2023/06/15 06:27:52;;;;;;;0.10;0.10;;;;;;;20.80;55.77;102103.56;5021334;28;20580;-79
2023/06/15 06:30:18;;;;;;;0.10;0.10;;;;;;;20.85;56.09;102105.09;5021231;28;20105;-78
2023/06/15 06:32:44;;;;;;;0.10;0.10;;;;;;;20.93;55.69;102103.91;5021000;28;20030;-78
2023/06/15 06:35:11;;;;;;;0.10;0.10;;;;;;;21.00;55.09;102097.31;5020146;28;20056;-79
2023/06/15 06:37:37;;;;;;;0.10;0.10;;;;;;;21.07;54.95;102097.91;5018644;28;20033;-77
2023/06/15 06:40:03;;;;;;;0.10;0.10;;;;;;;21.14;54.97;102092.16;5018310;28;20041;-78
2023/06/15 06:42:30;;;;;;;0.85;0.85;;;;;;;21.22;55.03;102097.22;5021693;28;20042;-79
2023/06/15 06:44:56;;;;;;;0.00;0.00;;;;;;;21.30;54.19;102100.44;5020896;28;20072;-78
2023/06/15 06:47:22;;;;;;;0.10;0.10;;;;;;;21.37;54.18;102101.06;5020595;28;20018;-79
2023/06/15 06:49:48;;;;;;;0.20;0.20;;;;;;;21.41;53.89;102097.25;5018951;28;20062;-78
2023/06/15 06:52:14;;;;;;;0.00;0.00;;;;;;;21.48;53.82;102095.16;5020753;28;20033;-78
2023/06/15 06:54:40;;;;;;;0.00;0.00;;;;;;;21.55;54.07;102093.06;5022449;28;20030;-78
2023/06/15 06:57:06;;;;;;;0.13;0.13;;;;;;;21.62;53.65;102084.63;5023829;28;20030;-78
2023/06/15 06:59:32;;;;;;;0.10;0.10;;;;;;;21.70;53.34;102096.88;5024455;28;20038;-78
2023/06/15 07:01:58;;;;;;;0.13;0.13;;;;;;;21.77;53.39;102090.22;5019604;28;20034;-78
2023/06/15 07:04:24;;;;;;;0.00;0.00;;;;;;;21.85;53.38;102096.16;5018042;28;20062;-78
2023/06/15 07:06:51;;;;;;;0.00;0.00;;;;;;;21.93;53.46;102095.78;5018933;28;20036;-77
2023/06/15 07:09:17;;;;;;;0.00;0.00;;;;;;;22.04;53.21;102097.97;5018947;28;20497;-78
2023/06/15 07:11:43;;;;;;;0.10;0.10;;;;;;;22.09;53.23;102090.50;5017202;28;20030;-78
2023/06/15 07:14:09;;;;;;;0.10;0.10;;;;;;;22.20;52.83;102095.41;5016859;28;20062;-78
2023/06/15 07:16:35;;;;;;;0.45;0.45;;;;;;;22.27;53.14;102100.41;5017584;28;20053;-78
2023/06/15 07:19:01;;;;;;;0.28;0.28;;;;;;;22.37;52.35;102105.34;5017399;28;20049;-78
2023/06/15 07:21:27;;;;;;;0.10;0.10;;;;;;;22.46;52.08;102102.22;5021286;28;20022;-79
2023/06/15 07:23:53;;;;;;;0.47;0.45;;;;;;;22.52;51.95;102107.31;5019308;28;20073;-78
2023/06/15 07:26:19;;;;;;;0.08;0.08;;;;;;;22.61;51.49;102101.44;5020899;28;20050;-78
2023/06/15 07:28:45;;;;;;;0.10;0.10;;;;;;;22.71;51.41;102099.13;5031008;28;20057;-78
2023/06/15 07:31:11;;;;;;;0.10;0.10;;;;;;;22.80;51.17;102100.50;5031832;28;20030;-78
2023/06/15 07:33:37;;;;;;;0.40;0.40;;;;;;;22.90;50.78;102107.19;5030423;28;20030;-78
2023/06/15 07:36:04;;;;;;;0.10;0.10;;;;;;;23.00;50.69;102101.28;5026107;28;20037;-79
2023/06/15 07:38:30;;;;;;;0.00;0.00;;;;;;;23.08;51.12;102099.06;5030775;28;20033;-78
2023/06/15 07:40:57;;;;;;;0.03;0.03;;;;;;;23.18;50.93;102105.75;5027058;28;20520;-79
2023/06/15 07:43:23;;;;;;;0.28;0.28;;;;;;;23.30;50.41;102106.03;5021969;28;20081;-79
2023/06/15 07:45:49;;;;;;;0.00;0.00;;;;;;;23.39;50.23;102105.53;5020690;28;20030;-79
2023/06/15 07:48:15;;;;;;;0.00;0.00;;;;;;;23.50;50.06;102103.13;5020475;28;20065;-79
2023/06/15 07:50:41;;;;;;;0.00;0.00;;;;;;;23.61;49.32;102101.66;5021198;28;20083;-78
2023/06/15 07:53:07;;;;;;;0.40;0.40;;;;;;;23.70;49.10;102098.44;5021399;28;20049;-79
2023/06/15 07:55:33;;;;;;;0.10;0.10;;;;;;;23.81;49.67;102098.72;5019876;28;20109;-79
2023/06/15 07:57:59;;;;;;;0.00;0.00;;;;;;;23.93;49.23;102096.31;5021979;28;20053;-81
2023/06/15 08:00:25;;;;;;;0.17;0.17;;;;;;;24.01;48.85;102104.88;5025643;28;20026;-80
2023/06/15 08:02:51;;;;;;;1.77;0.43;;;;;;;24.09;48.64;102102.59;5023051;28;20309;-80
2023/06/15 08:05:17;;;;;;;0.10;0.10;;;;;;;24.20;48.65;102094.72;5020679;28;20413;-80
2023/06/15 08:07:43;;;;;;;0.57;0.57;;;;;;;24.30;48.70;102088.75;5021249;28;20483;-80
2023/06/15 08:10:10;;;;;;;0.10;0.10;;;;;;;24.39;47.81;102094.50;5020867;28;20061;-80
2023/06/15 08:12:36;;;;;;;0.10;0.10;;;;;;;24.51;47.86;102092.03;5036504;28;20045;-80
2023/06/15 08:15:02;;;;;;;0.00;0.00;;;;;;;24.57;46.76;102090.81;5022358;28;20040;-80
2023/06/15 08:17:28;;;;;;;1.00;0.60;;;;;;;24.65;46.70;102096.66;5020739;28;20030;-80
2023/06/15 08:19:54;;;;;;;0.22;0.22;;;;;;;24.72;47.07;102095.34;5021470;28;20037;-80
2023/06/15 08:22:20;;;;;;;0.00;0.00;;;;;;;24.78;46.85;102100.38;5020399;28;20100;-80
2023/06/15 08:24:46;;;;;;;0.10;0.10;;;;;;;24.82;45.77;102101.06;5022402;28;20400;-80
2023/06/15 08:27:13;;;;;;;0.30;0.30;;;;;;;24.86;44.98;102092.69;5022243;28;20044;-80
2023/06/15 08:29:44;;;;;;;0.20;0.20;;;;;;;24.96;45.97;102103.84;5021157;28;20405;-80
2023/06/15 08:32:13;;;;;;;0.00;0.00;;;;;;;25.01;43.50;102098.09;5022377;28;20093;-80
2023/06/15 08:34:43;;;;;;;0.35;0.35;;;;;;;25.12;44.27;102102.88;5021176;28;20029;-80
2023/06/15 08:37:12;;;;;;;0.10;0.10;;;;;;;25.18;44.99;102103.38;5021226;28;20061;-80
2023/06/15 08:39:38;;;;;;;0.00;0.00;;;;;;;25.26;45.00;102100.19;5021636;28;20247;-80
2023/06/15 08:42:06;;;;;;;0.10;0.10;;;;;;;25.36;44.94;102105.91;5021641;28;20073;-80
2023/06/15 08:44:34;;;;;;;0.17;0.17;;;;;;;25.47;44.82;102100.72;5021670;28;20052;-80
2023/06/15 08:47:03;;;;;;;0.05;0.05;;;;;;;25.58;44.02;102100.00;5021544;28;20061;-80
2023/06/15 08:49:30;;;;;;;0.40;0.40;;;;;;;25.70;44.00;102100.22;5021686;28;20510;-80
2023/06/15 08:51:58;;;;;;;0.43;0.25;;;;;;;25.78;43.67;102096.03;5022972;28;20064;-80
2023/06/15 08:54:27;;;;;;;0.10;0.10;;;;;;;25.90;43.38;102093.50;5014757;28;20037;-79
2023/06/15 08:56:55;;;;;;;0.10;0.10;;;;;;;25.97;43.55;102097.53;5021981;28;20084;-80
2023/06/15 08:59:21;;;;;;;0.85;0.85;;;;;;;26.07;44.06;102090.56;5020597;28;20037;-80
2023/06/15 09:01:47;;;;;;;0.10;0.10;;;;;;;26.18;43.16;102097.13;5020755;28;20056;-80
2023/06/15 09:04:15;;;;;;;0.10;0.10;;;;;;;26.26;42.96;102095.63;5020780;28;20037;-80
2023/06/15 09:06:41;;;;;;;0.10;0.10;;;;;;;26.38;43.52;102101.22;5021216;28;20109;-79
2023/06/15 09:09:09;;;;;;;0.10;0.10;;;;;;;26.42;42.35;102100.06;5020837;28;20113;-79
2023/06/15 09:11:40;;;;;;;0.32;0.22;;;;;;;26.47;42.60;102100.59;5020653;28;20022;-80
2023/06/15 09:14:10;;;;;;;0.10;0.10;;;;;;;26.51;42.83;102095.84;5020641;28;20034;-80
2023/06/15 09:16:37;;;;;;;0.10;0.10;;;;;;;26.51;42.48;102093.13;5020407;28;20121;-80
2023/06/15 09:19:11;;;;;;;0.00;0.00;;;;;;;26.57;41.84;102098.13;5020233;28;20061;-80
2023/06/15 09:21:42;;;;;;;0.10;0.10;;;;;;;26.68;42.13;102094.66;5020558;28;20026;-79
2023/06/15 09:24:09;;;;;;;0.90;0.52;;;;;;;26.75;42.36;102096.88;5023908;28;20042;-80
2023/06/15 09:26:39;;;;;;;0.20;0.20;;;;;;;26.84;41.47;102100.81;5034622;28;20030;-80
2023/06/15 09:29:11;;;;;;;0.10;0.10;;;;;;;26.89;40.82;102097.78;5023578;28;20058;-81
2023/06/15 09:31:37;;;;;;;;;;;;;;;27.02;40.44;102093.22;5023130;28;20108;-81
2023/06/15 09:36:44;;;;;;;0.20;0.20;;;;;;;27.08;41.66;102090.06;5068430;28;20053;-80
2023/06/15 09:39:11;;;;;;;0.00;0.00;;;;;;;27.13;40.82;102087.03;5058423;28;20029;-81
2023/06/15 09:41:52;;;;;;;0.10;0.10;;;;;;;27.25;39.54;102088.00;5057243;28;20083;-81
2023/06/15 09:44:22;;;;;;;0.10;0.10;;;;;;;27.24;39.06;102087.13;5066723;28;20033;-80
2023/06/15 09:46:52;;;;;;;0.20;0.20;;;;;;;27.37;39.68;102087.13;5061337;28;20503;-81
2023/06/15 09:49:21;;;;;;;0.10;0.10;;;;;;;27.45;38.89;102089.31;5059477;28;20037;-80
2023/06/15 09:51:50;;;;;;;0.10;0.10;;;;;;;27.54;39.40;102076.88;5057518;28;20041;-81
2023/06/15 09:54:22;;;;;;;0.28;0.28;;;;;;;27.60;38.58;102077.31;5057786;28;20048;-80
2023/06/15 09:56:51;;;;;;;0.10;0.10;;;;;;;27.68;39.13;102081.34;5058658;28;20040;-81
2023/06/15 09:59:19;;;;;;;0.08;0.08;;;;;;;27.85;39.14;102080.06;5060199;28;20033;-81
2023/06/15 10:01:48;;;;;;;0.10;0.10;;;;;;;28.03;38.17;102081.44;5058948;28;20060;-81
2023/06/15 10:04:19;;;;;;;0.10;0.10;;;;;;;28.21;38.29;102070.16;5059257;28;20046;-81
2023/06/15 10:06:51;;;;;;;0.10;0.10;;;;;;;28.35;38.44;102080.00;5058424;28;20038;-81
2023/06/15 10:09:30;;;;;;;0.10;0.10;;;;;;;28.38;37.26;102083.34;5059300;28;20029;-81
2023/06/15 10:12:05;;;;;;;0.00;0.00;;;;;;;28.45;38.47;102086.50;5058656;28;20044;-81
2023/06/15 10:17:10;;;;;;;1.17;0.55;;;;;;;28.49;37.95;102090.72;5106171;27;20392;-81
2023/06/15 10:19:43;;;;;;;0.10;0.10;;;;;;;28.47;37.65;102080.94;5097956;28;20078;-81
2023/06/15 10:22:21;;;;;;;1.42;1.33;;;;;;;28.44;35.82;102078.41;5098943;28;20032;-81
2023/06/15 10:24:48;;;;;;;0.20;0.20;;;;;;;28.36;34.60;102090.81;5100158;28;20031;-81
2023/06/15 10:27:15;;;;;;;0.10;0.10;;;;;;;28.40;35.98;102084.13;5099900;28;20024;-81
2023/06/15 10:30:08;;;;;;;0.63;0.63;;;;;;;28.49;36.84;102081.69;5098098;28;20375;-81
2023/06/15 10:35:33;;;;;;;0.90;0.40;;;;;;;28.69;35.90;102085.63;5097288;27;20423;-80
2023/06/15 10:38:24;;;;;;;0.10;0.10;;;;;;;28.82;33.68;102080.06;5095840;28;20043;-81
2023/06/15 10:40:51;;;;;;;0.10;0.10;;;;;;;28.86;35.47;102074.25;5095831;28;20065;-80
2023/06/15 10:43:19;;;;;;;0.10;0.10;;;;;;;28.96;35.47;102085.31;5070457;28;20044;-81
2023/06/15 10:45:46;;;;;;;0.10;0.10;;;;;;;28.97;34.73;102073.38;5086095;28;20051;-80
2023/06/15 10:48:21;;;;;;;0.22;0.22;;;;;;;29.10;35.23;102080.59;5088387;28;20401;-80
2023/06/15 10:50:48;;;;;;;0.20;0.20;;;;;;;29.12;35.20;102075.91;5087651;28;20053;-81
2023/06/15 10:53:24;;;;;;;0.32;0.32;;;;;;;29.17;33.23;102079.13;5094885;28;20491;-79
2023/06/15 10:55:55;;;;;;;0.20;0.20;;;;;;;29.20;34.37;102081.63;5096855;28;20020;-80
2023/06/15 10:58:21;;;;;;;0.10;0.10;;;;;;;29.16;33.88;102078.28;5090492;28;20031;-80
2023/06/15 11:01:11;;;;;;;0.40;0.40;;;;;;;29.27;33.64;102074.66;5105632;28;20392;-80
2023/06/15 11:03:41;;;;;;;0.10;0.10;;;;;;;29.23;33.89;102073.19;5096330;28;20029;-81
2023/06/15 11:06:16;;;;;;;0.00;0.00;;;;;;;29.24;33.72;102077.66;5093787;28;20047;-81
2023/06/15 11:09:03;;;;;;;0.10;0.10;;;;;;;29.31;33.99;102073.47;5104417;28;20115;-81
2023/06/15 11:14:22;;;;;;;0.30;0.30;;;;;;;29.28;34.28;102072.81;5118898;27;20465;-81
2023/06/15 11:17:05;;;;;;;0.10;0.10;;;;;;;29.49;32.76;102071.09;5107502;28;20390;-81
2023/06/15 11:19:39;;;;;;;0.10;0.10;;;;;;;29.60;31.68;102067.50;5098031;28;20027;-83
2023/06/15 11:22:06;;;;;;;0.10;0.10;;;;;;;29.65;32.19;102062.50;5097989;28;20491;-80
2023/06/15 11:24:37;;;;;;;0.10;0.10;;;;;;;29.70;32.17;102065.72;5083293;28;20107;-82
2023/06/15 11:27:06;;;;;;;3.20;0.50;;;;;;;29.75;31.96;102056.31;5093401;28;20032;-81
2023/06/15 11:29:36;;;;;;;0.20;0.20;;;;;;;29.85;32.05;102069.06;5094104;28;20024;-81
2023/06/15 11:32:04;;;;;;;0.20;0.20;;;;;;;29.95;31.76;102063.72;5097272;28;20275;-81
2023/06/15 11:34:31;;;;;;;0.10;0.10;;;;;;;30.03;32.96;102060.34;5092831;28;20025;-81
2023/06/15 11:36:58;;;;;;;0.10;0.10;;;;;;;30.13;30.73;102057.69;5092602;28;20161;-81
2023/06/15 11:39:26;;;;;;;0.20;0.20;;;;;;;30.31;31.84;102055.28;5085349;28;20020;-81
2023/06/15 11:41:54;;;;;;;0.17;0.17;;;;;;;30.46;31.71;102058.56;5093647;28;20431;-81